createdAt,value
2023-03-03T00:00:44.090Z,2.40
2023-03-03T00:03:15.932Z,2.40
2023-03-03T00:05:42.701Z,2.40
2023-03-03T00:08:10.411Z,2.30
2023-03-03T00:10:38.444Z,2.30
2023-03-03T00:13:13.354Z,2.30
2023-03-03T00:15:39.885Z,2.30
2023-03-03T00:18:22.531Z,2.30
2023-03-03T00:20:53.593Z,2.20
2023-03-03T00:23:37.710Z,2.20
2023-03-03T00:26:23.960Z,2.10
2023-03-03T00:28:52.847Z,2.10
2023-03-03T00:31:23.234Z,2.20
2023-03-03T00:33:55.028Z,2.30
2023-03-03T00:43:22.069Z,2.00
2023-03-03T00:45:50.452Z,1.90
2023-03-03T00:48:29.784Z,1.90
2023-03-03T00:51:01.361Z,1.90
2023-03-03T00:53:30.484Z,1.90
2023-03-03T00:55:57.601Z,1.80
2023-03-03T00:58:24.768Z,1.80
2023-03-03T01:00:53.625Z,1.80
2023-03-03T01:03:26.460Z,1.80
2023-03-03T01:05:54.410Z,1.90
2023-03-03T01:08:22.179Z,1.90
2023-03-03T01:10:51.269Z,1.80
2023-03-03T01:13:20.053Z,1.80
2023-03-03T01:15:46.806Z,1.90
2023-03-03T01:18:14.567Z,1.90
2023-03-03T01:20:41.325Z,2.00
2023-03-03T01:23:08.127Z,1.90
2023-03-03T01:25:34.693Z,1.90
2023-03-03T01:28:01.198Z,1.70
2023-03-03T01:30:27.731Z,1.70
2023-03-03T01:32:54.495Z,1.70
2023-03-03T01:35:21.330Z,1.70
2023-03-03T01:37:47.968Z,1.70
2023-03-03T01:40:18.078Z,1.80
2023-03-03T01:42:44.593Z,1.70
2023-03-03T01:45:31.854Z,1.80
2023-03-03T01:48:03.012Z,1.70
2023-03-03T01:50:32.684Z,1.70
2023-03-03T01:53:02.281Z,1.70
2023-03-03T01:55:33.486Z,1.50
2023-03-03T01:58:09.004Z,1.40
2023-03-03T02:00:39.127Z,1.50
2023-03-03T02:03:06.260Z,1.50
2023-03-03T02:05:35.100Z,1.40
2023-03-03T02:08:01.927Z,1.30
2023-03-03T02:10:29.587Z,1.40
2023-03-03T02:12:58.401Z,1.40
2023-03-03T02:15:32.176Z,1.40
2023-03-03T02:18:12.700Z,1.40
2023-03-03T02:21:03.667Z,1.40
2023-03-03T02:23:50.124Z,1.40
2023-03-03T02:26:26.241Z,1.40
2023-03-03T02:28:57.924Z,1.30
2023-03-03T02:31:28.710Z,1.40
2023-03-03T02:33:55.871Z,1.40
2023-03-03T02:36:44.402Z,1.40
2023-03-03T02:39:18.226Z,1.40
2023-03-03T02:42:02.965Z,1.30
2023-03-03T02:44:51.995Z,1.30
2023-03-03T02:47:18.540Z,1.20
2023-03-03T02:49:45.184Z,1.10
2023-03-03T02:52:12.593Z,1.00
2023-03-03T02:54:41.463Z,1.00
2023-03-03T02:57:08.991Z,0.90
2023-03-03T02:59:35.521Z,0.90
2023-03-03T03:02:09.094Z,1.00
2023-03-03T03:04:35.805Z,1.10
2023-03-03T03:07:02.302Z,1.20
2023-03-03T03:09:30.904Z,1.20
2023-03-03T03:12:02.302Z,1.20
2023-03-03T03:14:30.932Z,1.10
2023-03-03T03:16:58.531Z,1.10
2023-03-03T03:19:26.728Z,1.10
2023-03-03T03:21:53.470Z,1.00
2023-03-03T03:24:20.618Z,1.00
2023-03-03T03:26:53.540Z,1.00
2023-03-03T03:29:20.994Z,0.90
2023-03-03T03:31:47.815Z,0.80
2023-03-03T03:34:14.342Z,0.70
2023-03-03T03:36:40.852Z,0.70
2023-03-03T03:39:07.877Z,0.80
2023-03-03T03:41:37.287Z,0.90
2023-03-03T03:44:04.381Z,0.90
2023-03-03T03:46:31.025Z,0.80
2023-03-03T03:48:57.672Z,0.70
2023-03-03T03:51:25.204Z,0.60
2023-03-03T03:53:51.730Z,0.60
2023-03-03T03:56:18.363Z,0.50
2023-03-03T03:58:47.863Z,0.60
2023-03-03T04:01:15.410Z,0.70
2023-03-03T04:03:46.517Z,0.80
2023-03-03T04:06:16.822Z,0.70
2023-03-03T04:08:44.180Z,0.50
2023-03-03T04:11:11.202Z,0.50
2023-03-03T04:13:38.007Z,0.60
2023-03-03T04:16:06.871Z,0.50
2023-03-03T04:18:34.386Z,0.60
2023-03-03T04:21:02.201Z,0.60
2023-03-03T04:23:28.712Z,0.60
2023-03-03T04:25:55.344Z,0.70
2023-03-03T04:28:24.534Z,0.60
2023-03-03T04:30:52.081Z,0.50
2023-03-03T04:33:20.805Z,0.60
2023-03-03T04:35:48.271Z,0.60
2023-03-03T04:38:15.032Z,0.50
2023-03-03T04:40:42.518Z,0.50
2023-03-03T04:43:11.168Z,0.40
2023-03-03T04:45:37.762Z,0.50
2023-03-03T04:48:05.075Z,0.50
2023-03-03T04:50:32.917Z,0.50
2023-03-03T04:52:59.469Z,0.50
2023-03-03T04:55:26.994Z,0.50
2023-03-03T04:57:53.543Z,0.40
2023-03-03T05:00:20.376Z,0.40
2023-03-03T05:02:48.242Z,0.40
2023-03-03T05:05:14.968Z,0.50
2023-03-03T05:07:41.467Z,0.50
2023-03-03T05:10:08.555Z,0.50
2023-03-03T05:12:35.011Z,0.40
2023-03-03T05:15:01.414Z,0.40
2023-03-03T05:17:27.941Z,0.30
2023-03-03T05:19:57.204Z,0.20
2023-03-03T05:22:24.755Z,0.00
2023-03-03T05:24:51.588Z,0.00
2023-03-03T05:27:18.098Z,0.00
2023-03-03T05:29:44.845Z,0.10
2023-03-03T05:32:11.476Z,0.00
2023-03-03T05:34:39.056Z,0.00
2023-03-03T05:37:06.719Z,0.00
2023-03-03T05:39:34.183Z,0.10
2023-03-03T05:42:00.709Z,0.20
2023-03-03T05:44:27.527Z,0.20
2023-03-03T05:46:54.211Z,0.20
2023-03-03T05:49:20.664Z,0.10
2023-03-03T05:51:47.108Z,0.10
2023-03-03T05:54:13.640Z,0.00
2023-03-03T05:56:40.092Z,0.00
2023-03-03T05:59:06.530Z,-0.10
2023-03-03T06:01:33.238Z,0.10
2023-03-03T06:03:59.714Z,0.10
2023-03-03T06:06:26.646Z,0.10
2023-03-03T06:08:55.551Z,0.20
2023-03-03T06:11:23.728Z,0.30
2023-03-03T06:13:50.282Z,0.30
2023-03-03T06:16:16.789Z,0.30
2023-03-03T06:18:43.534Z,0.30
2023-03-03T06:21:10.037Z,0.30
2023-03-03T06:23:36.741Z,0.30
2023-03-03T06:26:03.356Z,0.30
2023-03-03T06:28:29.849Z,0.30
2023-03-03T06:30:56.698Z,0.20
2023-03-03T06:33:23.898Z,0.20
2023-03-03T06:35:51.598Z,0.20
2023-03-03T06:38:19.102Z,0.20
2023-03-03T06:40:47.261Z,0.20
2023-03-03T06:43:14.220Z,0.20
2023-03-03T06:45:40.794Z,0.30
2023-03-03T06:48:07.397Z,0.30
2023-03-03T06:50:34.868Z,0.20
2023-03-03T06:53:15.452Z,0.30
2023-03-03T06:55:44.662Z,0.40
2023-03-03T06:58:14.868Z,0.50
2023-03-03T07:00:56.948Z,0.40
2023-03-03T07:03:25.523Z,0.60
2023-03-03T07:05:53.548Z,0.60
2023-03-03T07:08:22.467Z,0.70
2023-03-03T07:10:50.706Z,0.80
2023-03-03T07:13:23.436Z,0.90
2023-03-03T07:15:52.029Z,1.00
2023-03-03T07:18:37.344Z,1.10
2023-03-03T07:21:16.302Z,1.20
2023-03-03T07:23:45.040Z,1.20
2023-03-03T07:26:18.519Z,1.30
2023-03-03T07:28:52.352Z,1.40
2023-03-03T07:31:42.185Z,1.60
2023-03-03T07:34:31.017Z,1.70
2023-03-03T07:37:09.611Z,1.70
2023-03-03T07:39:41.008Z,1.70
2023-03-03T07:42:14.614Z,1.90
2023-03-03T07:44:41.242Z,1.90
2023-03-03T07:47:18.370Z,2.00
2023-03-03T07:49:45.331Z,2.10
2023-03-03T07:52:31.269Z,2.30
2023-03-03T07:55:02.043Z,2.40
2023-03-03T07:57:39.786Z,2.50
2023-03-03T08:00:18.522Z,2.60
2023-03-03T08:02:47.188Z,2.70
2023-03-03T08:05:36.201Z,2.60
2023-03-03T08:08:31.026Z,2.70
2023-03-03T08:11:01.759Z,2.80
2023-03-03T08:13:34.007Z,3.00
2023-03-03T08:16:09.628Z,3.20
2023-03-03T08:18:39.687Z,3.30
2023-03-03T08:21:14.507Z,3.40
2023-03-03T08:23:41.436Z,3.60
2023-03-03T08:26:09.425Z,3.80
2023-03-03T08:28:35.932Z,4.00
2023-03-03T08:31:15.275Z,4.00
2023-03-03T08:33:47.037Z,4.00
2023-03-03T08:36:14.109Z,3.90
2023-03-03T08:38:40.733Z,4.00
2023-03-03T08:41:07.594Z,4.20
2023-03-03T08:43:34.003Z,4.20
2023-03-03T08:46:02.672Z,4.30
2023-03-03T08:48:29.759Z,4.50
2023-03-03T08:50:56.324Z,4.70
2023-03-03T08:53:23.489Z,4.80
2023-03-03T08:55:50.256Z,5.00
2023-03-03T08:58:19.250Z,5.10
2023-03-03T09:00:48.919Z,5.00
2023-03-03T09:03:16.259Z,5.00
2023-03-03T09:05:42.914Z,5.10
2023-03-03T09:08:10.732Z,5.30
2023-03-03T09:10:37.312Z,5.50
2023-03-03T09:13:16.199Z,5.60
2023-03-03T09:15:42.801Z,5.60
2023-03-03T09:18:27.681Z,5.70
2023-03-03T09:20:57.361Z,5.80
2023-03-03T09:23:23.924Z,5.80
2023-03-03T09:25:51.589Z,5.90
2023-03-03T09:28:24.460Z,5.90
2023-03-03T09:30:52.566Z,5.90
2023-03-03T09:33:26.741Z,6.00
2023-03-03T09:36:09.987Z,6.10
2023-03-03T09:38:41.690Z,6.20
2023-03-03T09:41:29.246Z,6.20
2023-03-03T09:44:01.578Z,6.20
2023-03-03T09:46:51.175Z,6.30
2023-03-03T09:50:08.593Z,6.30
2023-03-03T09:52:46.581Z,6.40
2023-03-03T09:55:24.955Z,6.40
2023-03-03T09:58:11.313Z,6.50
2023-03-03T10:01:02.392Z,6.50
2023-03-03T10:03:53.491Z,6.70
2023-03-03T10:06:33.736Z,6.70
2023-03-03T10:09:21.905Z,6.80
2023-03-03T10:12:13.419Z,6.70
2023-03-03T10:15:04.514Z,6.80
2023-03-03T10:17:52.087Z,6.90
2023-03-03T10:20:49.120Z,7.00
2023-03-03T10:23:59.478Z,7.10
2023-03-03T10:27:11.770Z,7.10
2023-03-03T10:30:11.307Z,7.20
2023-03-03T10:32:45.866Z,7.20
2023-03-03T10:35:18.542Z,7.20
2023-03-03T10:38:06.014Z,7.30
2023-03-03T10:40:50.809Z,7.40
2023-03-03T10:43:31.799Z,7.50
2023-03-03T10:46:20.155Z,7.50
2023-03-03T10:48:55.685Z,7.60
2023-03-03T10:51:31.937Z,7.70
2023-03-03T10:54:33.468Z,7.80
2023-03-03T10:57:23.640Z,7.80
2023-03-03T11:00:16.619Z,7.90
2023-03-03T11:03:07.805Z,7.90
2023-03-03T11:06:04.886Z,7.90
2023-03-03T11:08:55.196Z,7.90
2023-03-03T11:11:46.175Z,8.10
2023-03-03T11:14:30.470Z,8.10
2023-03-03T11:17:35.239Z,8.30
2023-03-03T11:20:09.640Z,8.30
2023-03-03T11:23:03.835Z,8.30
2023-03-03T11:25:38.031Z,8.40
2023-03-03T11:28:26.300Z,8.50
2023-03-03T11:31:08.619Z,8.60
2023-03-03T11:33:56.826Z,8.60
2023-03-03T11:36:28.649Z,8.80
2023-03-03T11:39:08.820Z,8.80
2023-03-03T11:41:43.355Z,8.80
2023-03-03T11:44:29.347Z,9.00
2023-03-03T11:47:05.674Z,9.10
2023-03-03T11:49:53.858Z,9.30
2023-03-03T11:52:24.383Z,9.20
2023-03-03T11:54:54.944Z,9.20
2023-03-03T11:57:29.196Z,9.20
2023-03-03T12:00:28.051Z,9.20
2023-03-03T12:03:13.198Z,9.20
2023-03-03T12:05:56.182Z,9.40
2023-03-03T12:08:47.970Z,9.40
2023-03-03T12:11:53.993Z,9.50
2023-03-03T12:14:40.464Z,9.50
2023-03-03T12:17:32.583Z,9.50
2023-03-03T12:20:08.201Z,9.60
2023-03-03T12:22:38.644Z,9.70
2023-03-03T12:25:23.004Z,9.80
2023-03-03T12:27:52.264Z,9.90
2023-03-03T12:30:48.926Z,9.80
2023-03-03T12:33:37.938Z,9.90
2023-03-03T12:36:29.245Z,9.80
2023-03-03T12:39:33.929Z,9.80
2023-03-03T12:42:23.549Z,9.80
2023-03-03T12:45:03.601Z,9.90
2023-03-03T12:47:49.193Z,9.80
2023-03-03T12:50:25.142Z,9.80
2023-03-03T12:53:13.062Z,9.90
2023-03-03T12:55:52.766Z,9.90
2023-03-03T12:58:46.762Z,9.90
2023-03-03T13:01:31.760Z,9.90
2023-03-03T13:04:32.400Z,10.10
2023-03-03T13:07:05.383Z,10.00
2023-03-03T13:09:55.652Z,10.20
2023-03-03T13:12:30.492Z,10.20
2023-03-03T13:15:19.341Z,10.20
2023-03-03T13:18:01.119Z,10.20
2023-03-03T13:20:44.666Z,10.20
2023-03-03T13:23:31.973Z,10.20
2023-03-03T13:26:16.444Z,10.30
2023-03-03T13:29:02.381Z,10.40
2023-03-03T13:31:55.211Z,10.50
2023-03-03T13:34:30.751Z,10.50
2023-03-03T13:37:19.915Z,10.50
2023-03-03T13:40:16.374Z,10.50
2023-03-03T13:42:51.445Z,10.50
2023-03-03T13:45:18.127Z,10.50
2023-03-03T13:48:28.361Z,10.50
2023-03-03T13:51:04.563Z,10.50
2023-03-03T13:53:56.053Z,10.50
2023-03-03T13:56:34.693Z,10.60
2023-03-03T13:59:30.743Z,10.70
2023-03-03T14:02:34.602Z,10.70
2023-03-03T14:05:04.652Z,10.70
2023-03-03T14:07:51.057Z,10.70
2023-03-03T14:10:26.236Z,10.70
2023-03-03T14:13:11.531Z,10.80
2023-03-03T14:15:50.905Z,10.80
2023-03-03T14:18:32.669Z,10.80
2023-03-03T14:21:15.872Z,10.80
2023-03-03T14:24:07.079Z,10.80
2023-03-03T14:26:49.795Z,10.90
2023-03-03T14:29:31.717Z,10.90
2023-03-03T14:32:20.176Z,10.90
2023-03-03T14:34:58.318Z,10.90
2023-03-03T14:37:29.691Z,10.90
2023-03-03T14:40:14.704Z,11.00
2023-03-03T14:42:51.560Z,11.10
2023-03-03T14:45:29.360Z,11.10
2023-03-03T14:47:57.889Z,11.00
2023-03-03T14:50:49.050Z,11.00
2023-03-03T14:53:18.420Z,11.00
2023-03-03T14:55:50.899Z,11.10
2023-03-03T14:58:35.076Z,11.10
2023-03-03T15:01:14.601Z,11.00
2023-03-03T15:03:49.078Z,11.00
2023-03-03T15:06:30.533Z,10.90
2023-03-03T15:08:57.193Z,10.90
2023-03-03T15:11:32.236Z,10.80
2023-03-03T15:14:14.792Z,10.80
2023-03-03T15:16:44.948Z,10.80
2023-03-03T15:19:39.298Z,10.80
2023-03-03T15:22:25.746Z,10.80
2023-03-03T15:25:01.029Z,10.80
2023-03-03T15:28:06.129Z,10.70
2023-03-03T15:30:44.448Z,10.80
2023-03-03T15:34:06.738Z,10.80
2023-03-03T15:36:33.261Z,10.70
2023-03-03T15:38:59.787Z,10.70
2023-03-03T15:42:03.119Z,10.80
2023-03-03T15:44:45.202Z,10.80
2023-03-03T15:47:32.642Z,10.90
2023-03-03T15:50:18.545Z,11.00
2023-03-03T15:53:18.881Z,10.90
2023-03-03T15:56:36.958Z,10.90
2023-03-03T15:59:32.685Z,10.80
2023-03-03T16:02:17.758Z,10.80
2023-03-03T16:05:10.130Z,10.70
2023-03-03T16:07:52.135Z,10.70
2023-03-03T16:10:18.795Z,10.60
2023-03-03T16:13:04.566Z,10.50
2023-03-03T16:15:50.687Z,10.50
2023-03-03T16:18:17.192Z,10.30
2023-03-03T16:20:59.240Z,10.20
2023-03-03T16:23:37.566Z,10.10
2023-03-03T16:26:13.094Z,9.90
2023-03-03T16:29:11.449Z,9.80
2023-03-03T16:31:47.757Z,9.70
2023-03-03T16:34:44.841Z,9.70
2023-03-03T16:37:18.700Z,9.60
2023-03-03T16:39:56.805Z,9.50
2023-03-03T16:42:31.558Z,9.50
2023-03-03T16:45:21.422Z,9.40
2023-03-03T16:47:57.321Z,9.30
2023-03-03T16:50:30.278Z,9.20
2023-03-03T16:53:11.101Z,9.10
2023-03-03T16:56:19.710Z,9.10
2023-03-03T16:59:05.106Z,9.00
2023-03-03T17:01:40.354Z,8.90
2023-03-03T17:04:31.475Z,8.80
2023-03-03T17:07:02.846Z,8.70
2023-03-03T17:10:02.861Z,8.70
2023-03-03T17:12:53.954Z,8.60
2023-03-03T17:15:39.295Z,8.50
2023-03-03T17:18:28.099Z,8.40
2023-03-03T17:21:00.826Z,8.30
2023-03-03T17:23:44.138Z,8.30
2023-03-03T17:26:30.766Z,8.20
2023-03-03T17:29:45.084Z,8.10
2023-03-03T17:32:43.566Z,8.00
2023-03-03T17:35:27.693Z,8.00
2023-03-03T17:38:30.633Z,7.90
2023-03-03T17:41:03.404Z,7.80
2023-03-03T17:43:43.607Z,7.70
2023-03-03T17:46:30.335Z,7.70
2023-03-03T17:49:25.123Z,7.70
2023-03-03T17:51:51.501Z,7.80
2023-03-03T17:55:12.492Z,7.70
2023-03-03T17:57:48.112Z,7.60
2023-03-03T18:00:32.714Z,7.50
2023-03-03T18:03:08.286Z,7.30
2023-03-03T18:05:53.781Z,7.30
2023-03-03T18:08:57.513Z,7.20
2023-03-03T18:11:44.137Z,7.20
2023-03-03T18:14:35.293Z,7.20
2023-03-03T18:17:14.437Z,7.20
2023-03-03T18:20:07.919Z,7.20
2023-03-03T18:22:43.686Z,7.20
2023-03-03T18:25:19.592Z,7.10
2023-03-03T18:27:47.840Z,7.10
2023-03-03T18:30:17.136Z,7.10
2023-03-03T18:32:48.392Z,7.00
2023-03-03T18:35:30.307Z,7.00
2023-03-03T18:37:57.495Z,7.00
2023-03-03T18:40:29.611Z,7.00
2023-03-03T18:42:56.284Z,7.00
2023-03-03T18:45:24.521Z,6.90
2023-03-03T18:48:03.307Z,6.90
2023-03-03T18:50:47.773Z,6.90
2023-03-03T18:53:14.396Z,6.80
2023-03-03T18:55:43.811Z,6.70
2023-03-03T18:58:16.339Z,6.70
2023-03-03T19:01:11.633Z,6.70
2023-03-03T19:03:47.006Z,6.60
2023-03-03T19:06:38.443Z,6.60
2023-03-03T19:09:06.764Z,6.50
2023-03-03T19:11:41.037Z,6.50
2023-03-03T19:14:16.789Z,6.50
2023-03-03T19:16:44.457Z,6.40
2023-03-03T19:19:12.351Z,6.40
2023-03-03T19:21:42.700Z,6.40
2023-03-03T19:24:26.926Z,6.40
2023-03-03T19:27:08.238Z,6.30
2023-03-03T19:29:46.631Z,6.30
2023-03-03T19:32:42.855Z,6.20
2023-03-03T19:35:43.792Z,6.00
2023-03-03T19:38:29.149Z,6.00
2023-03-03T19:41:34.073Z,5.90
2023-03-03T19:44:15.344Z,5.80
2023-03-03T19:47:03.475Z,5.80
2023-03-03T19:49:33.044Z,5.70
2023-03-03T19:52:18.403Z,5.70
2023-03-03T19:55:13.727Z,5.70
2023-03-03T19:58:12.294Z,5.60
2023-03-03T20:00:45.275Z,5.60
2023-03-03T20:03:49.509Z,5.60
2023-03-03T20:06:34.491Z,5.50
2023-03-03T20:09:18.037Z,5.40
2023-03-03T20:12:09.511Z,5.40
2023-03-03T20:14:45.953Z,5.30
2023-03-03T20:17:30.913Z,5.30
2023-03-03T20:20:13.163Z,5.30
2023-03-03T20:23:05.238Z,5.20
2023-03-03T20:25:44.257Z,5.00
2023-03-03T20:28:38.615Z,4.90
2023-03-03T20:31:26.326Z,4.80
2023-03-03T20:33:58.733Z,4.80
2023-03-03T20:36:46.990Z,4.70
2023-03-03T20:39:36.004Z,4.60
2023-03-03T20:42:07.181Z,4.60
2023-03-03T20:44:46.898Z,4.70
2023-03-03T20:47:22.877Z,4.70
2023-03-03T20:50:09.983Z,4.70
2023-03-03T20:52:57.484Z,4.70
2023-03-03T20:55:42.910Z,4.60
2023-03-03T20:58:34.888Z,4.60
2023-03-03T21:01:15.716Z,4.60
2023-03-03T21:03:45.212Z,4.50
2023-03-03T21:06:16.709Z,4.40
2023-03-03T21:08:53.428Z,4.40
2023-03-03T21:11:46.521Z,4.30
2023-03-03T21:14:22.704Z,4.30
2023-03-03T21:16:50.932Z,4.20
2023-03-03T21:19:29.869Z,4.10
2023-03-03T21:21:59.276Z,3.90
2023-03-03T21:24:57.494Z,3.80
2023-03-03T21:27:33.607Z,3.80
2023-03-03T21:30:12.360Z,3.90
2023-03-03T21:32:44.721Z,3.80
2023-03-03T21:35:14.479Z,3.80
2023-03-03T21:37:53.138Z,3.70
2023-03-03T21:40:28.300Z,3.60
2023-03-03T21:42:57.799Z,3.60
2023-03-03T21:45:24.765Z,3.60
2023-03-03T21:47:54.828Z,3.60
2023-03-03T21:50:21.506Z,3.60
2023-03-03T21:52:48.898Z,3.50
2023-03-03T21:55:15.725Z,3.50
2023-03-03T21:57:42.235Z,3.60
2023-03-03T22:00:10.099Z,3.60
2023-03-03T22:02:36.778Z,3.40
2023-03-03T22:05:03.968Z,3.30
2023-03-03T22:07:30.598Z,3.20
2023-03-03T22:09:57.110Z,3.30
2023-03-03T22:12:23.614Z,3.20
2023-03-03T22:14:50.194Z,3.10
2023-03-03T22:17:16.892Z,3.00
2023-03-03T22:19:43.413Z,3.00
2023-03-03T22:22:09.896Z,3.00
2023-03-03T22:24:36.400Z,3.10
2023-03-03T22:27:03.409Z,3.20
2023-03-03T22:29:29.941Z,3.20
2023-03-03T22:31:56.470Z,3.20
2023-03-03T22:34:23.084Z,3.10
2023-03-03T22:36:49.593Z,3.10
2023-03-03T22:39:16.115Z,3.10
2023-03-03T22:41:42.612Z,3.10
2023-03-03T22:44:09.124Z,3.00
2023-03-03T22:46:35.685Z,2.70
2023-03-03T22:49:02.382Z,2.40
2023-03-03T22:51:28.918Z,2.30
2023-03-03T22:53:55.431Z,2.40
2023-03-03T22:56:22.023Z,2.50
2023-03-03T22:58:49.184Z,2.60
2023-03-03T23:01:15.760Z,2.70
2023-03-03T23:03:42.267Z,2.70
2023-03-03T23:06:08.747Z,2.70
2023-03-03T23:08:35.368Z,2.70
2023-03-03T23:11:02.788Z,2.70
2023-03-03T23:13:29.255Z,2.60
2023-03-03T23:15:59.971Z,2.60
2023-03-03T23:18:28.214Z,2.60
2023-03-03T23:20:55.287Z,2.60
2023-03-03T23:23:22.085Z,2.50
2023-03-03T23:25:48.635Z,2.50
2023-03-03T23:28:15.847Z,2.50
2023-03-03T23:30:43.106Z,2.50
2023-03-03T23:33:09.776Z,2.50
2023-03-03T23:35:36.652Z,2.40
2023-03-03T23:38:03.305Z,2.40
2023-03-03T23:40:29.948Z,2.30
2023-03-03T23:42:56.800Z,2.30
2023-03-03T23:45:23.453Z,2.30
2023-03-03T23:47:50.074Z,2.20
2023-03-03T23:50:16.693Z,2.20
2023-03-03T23:52:43.286Z,2.20
2023-03-03T23:55:10.209Z,2.20
2023-03-03T23:57:36.748Z,2.20
